createdAt,value
2018-06-13T00:01:29.989Z,100759.03
2018-06-13T00:03:58.232Z,100758.03
2018-06-13T00:06:26.455Z,100762.70
2018-06-13T00:08:54.685Z,100765.14
2018-06-13T00:11:22.960Z,100774.38
2018-06-13T00:13:51.331Z,100769.80
2018-06-13T00:16:19.560Z,100774.67
2018-06-13T00:18:47.820Z,100768.16
2018-06-13T00:21:16.266Z,100776.30
2018-06-13T00:23:44.544Z,100774.12
2018-06-13T00:26:12.963Z,100778.74
2018-06-13T00:28:41.246Z,100776.02
2018-06-13T00:31:09.561Z,100781.17
2018-06-13T00:33:37.805Z,100771.70
2018-06-13T00:36:06.223Z,100777.64
2018-06-13T00:38:34.477Z,100777.62
2018-06-13T00:41:02.732Z,100778.47
2018-06-13T00:43:31.371Z,100776.00
2018-06-13T00:45:59.668Z,100771.43
2018-06-13T00:48:27.980Z,100777.11
2018-06-13T00:50:56.380Z,100771.43
2018-06-13T00:53:24.684Z,100766.28
2018-06-13T00:56:32.749Z,100772.78
2018-06-13T00:59:00.986Z,100773.57
2018-06-13T01:01:29.213Z,100774.41
2018-06-13T01:03:57.456Z,100764.91
2018-06-13T01:06:25.771Z,100770.87
2018-06-13T01:08:54.055Z,100766.53
2018-06-13T01:11:22.344Z,100765.45
2018-06-13T01:13:50.600Z,100768.41
2018-06-13T01:16:18.871Z,100762.48
2018-06-13T01:18:47.100Z,100761.39
2018-06-13T01:21:15.369Z,100755.45
2018-06-13T01:23:43.631Z,100760.33
2018-06-13T01:26:11.833Z,100754.92
2018-06-13T01:28:40.063Z,100750.56
2018-06-13T01:31:08.326Z,100754.92
2018-06-13T01:33:36.572Z,100749.50
2018-06-13T01:36:04.962Z,100753.56
2018-06-13T01:38:33.163Z,100750.27
2018-06-13T01:41:01.426Z,100753.80
2018-06-13T01:43:29.665Z,100747.80
2018-06-13T01:45:57.925Z,100754.55
2018-06-13T01:48:26.180Z,100745.02
2018-06-13T01:50:56.859Z,100737.02
2018-06-13T01:53:25.177Z,100732.42
2018-06-13T01:55:53.502Z,100740.26
2018-06-13T01:58:21.883Z,100740.98
2018-06-13T02:00:50.305Z,100733.17
2018-06-13T02:03:18.565Z,100738.34
2018-06-13T02:05:46.780Z,100741.58
2018-06-13T02:08:15.063Z,100741.33
2018-06-13T02:10:43.311Z,100733.77
2018-06-13T02:13:11.595Z,100733.13
2018-06-13T02:15:39.847Z,100726.16
2018-06-13T02:18:08.177Z,100724.82
2018-06-13T02:20:36.418Z,100729.13
2018-06-13T02:23:04.686Z,100727.27
2018-06-13T02:25:32.991Z,100725.39
2018-06-13T02:28:01.279Z,100734.84
2018-06-13T02:30:29.749Z,100739.86
2018-06-13T02:32:58.672Z,100735.61
2018-06-13T02:35:27.038Z,100735.41
2018-06-13T02:37:55.321Z,100736.20
2018-06-13T02:40:23.583Z,100737.55
2018-06-13T02:42:51.888Z,100735.91
2018-06-13T02:45:20.190Z,100734.02
2018-06-13T02:47:48.541Z,100724.02
2018-06-13T02:50:16.819Z,100735.02
2018-06-13T02:52:45.183Z,100736.98
2018-06-13T02:55:13.452Z,100728.34
2018-06-13T02:57:41.749Z,100732.41
2018-06-13T03:00:10.044Z,100738.06
2018-06-13T03:02:38.337Z,100737.25
2018-06-13T03:05:06.597Z,100742.65
2018-06-13T03:07:34.833Z,100740.43
2018-06-13T03:10:03.104Z,100737.98
2018-06-13T03:12:31.405Z,100726.76
2018-06-13T03:14:59.707Z,100733.62
2018-06-13T03:17:27.920Z,100729.53
2018-06-13T03:19:56.181Z,100730.89
2018-06-13T03:22:24.438Z,100736.59
2018-06-13T03:24:57.202Z,100737.12
2018-06-13T03:27:25.450Z,100730.34
2018-06-13T03:29:53.875Z,100729.31
2018-06-13T03:32:22.163Z,100734.17
2018-06-13T03:34:50.454Z,100728.03
2018-06-13T03:37:18.707Z,100723.23
2018-06-13T03:39:46.916Z,100723.00
2018-06-13T03:42:15.183Z,100720.80
2018-06-13T03:44:43.404Z,100719.98
2018-06-13T03:47:11.647Z,100728.69
2018-06-13T03:49:39.880Z,100728.21
2018-06-13T03:52:08.115Z,100734.32
2018-06-13T03:54:36.359Z,100736.52
2018-06-13T03:57:04.589Z,100739.13
2018-06-13T03:59:32.819Z,100734.82
2018-06-13T04:02:01.080Z,100739.16
2018-06-13T04:04:29.361Z,100733.20
2018-06-13T04:06:57.626Z,100733.14
2018-06-13T04:09:25.836Z,100735.09
2018-06-13T04:11:54.073Z,100740.42
2018-06-13T04:14:22.270Z,100736.97
2018-06-13T04:16:50.611Z,100739.45
2018-06-13T04:19:18.844Z,100740.92
2018-06-13T04:21:47.131Z,100735.25
2018-06-13T04:24:15.346Z,100741.55
2018-06-13T04:26:44.070Z,100735.67
2018-06-13T04:29:12.317Z,100740.95
2018-06-13T04:31:40.547Z,100741.91
2018-06-13T04:34:08.805Z,100743.70
2018-06-13T04:36:37.011Z,100755.13
2018-06-13T04:39:08.779Z,100756.63
2018-06-13T04:41:37.359Z,100749.67
2018-06-13T04:44:05.596Z,100755.65
2018-06-13T04:46:33.820Z,100746.73
2018-06-13T04:49:02.040Z,100750.47
2018-06-13T04:51:30.280Z,100749.50
2018-06-13T04:53:58.500Z,100748.32
2018-06-13T04:56:26.740Z,100747.83
2018-06-13T04:58:54.995Z,100751.25
2018-06-13T05:01:23.437Z,100758.40
2018-06-13T05:03:51.721Z,100752.85
2018-06-13T05:06:19.955Z,100758.11
2018-06-13T05:08:48.254Z,100756.20
2018-06-13T05:11:16.485Z,100763.44
2018-06-13T05:13:44.828Z,100765.61
2018-06-13T05:16:13.109Z,100767.33
2018-06-13T05:18:41.449Z,100784.53
2018-06-13T05:21:09.678Z,100772.68
2018-06-13T05:23:38.005Z,100777.53
2018-06-13T05:26:06.427Z,100777.23
2018-06-13T05:28:35.635Z,100777.25
2018-06-13T05:31:03.868Z,100775.72
2018-06-13T05:33:32.121Z,100774.80
2018-06-13T05:36:00.405Z,100782.52
2018-06-13T05:38:28.729Z,100783.22
2018-06-13T05:40:56.970Z,100784.01
2018-06-13T05:43:25.196Z,100779.77
2018-06-13T05:45:53.437Z,100783.52
2018-06-13T05:48:22.351Z,100784.05
2018-06-13T05:50:50.605Z,100787.30
2018-06-13T05:53:18.877Z,100784.14
2018-06-13T05:55:47.148Z,100785.70
2018-06-13T05:58:15.429Z,100790.38
2018-06-13T06:00:43.707Z,100795.23
2018-06-13T06:03:12.136Z,100792.31
2018-06-13T06:05:40.410Z,100791.41
2018-06-13T06:08:08.633Z,100792.31
2018-06-13T06:10:36.988Z,100794.61
2018-06-13T06:13:05.484Z,100798.59
2018-06-13T06:15:33.761Z,100801.53
2018-06-13T06:18:01.988Z,100802.41
2018-06-13T06:20:30.278Z,100804.88
2018-06-13T06:22:58.681Z,100811.30
2018-06-13T06:25:26.917Z,100814.36
2018-06-13T06:27:55.272Z,100812.63
2018-06-13T06:30:23.586Z,100809.95
2018-06-13T06:32:51.920Z,100807.31
2018-06-13T06:35:20.272Z,100811.13
2018-06-13T06:37:48.526Z,100815.48
2018-06-13T06:40:16.837Z,100813.00
2018-06-13T06:42:45.068Z,100815.75
2018-06-13T06:45:13.380Z,100817.37
2018-06-13T06:47:41.627Z,100817.66
2018-06-13T06:50:09.897Z,100815.26
2018-06-13T06:52:38.174Z,100820.89
2018-06-13T06:55:06.403Z,100818.77
2018-06-13T06:57:34.660Z,100816.33
2018-06-13T07:00:02.912Z,100820.95
2018-06-13T07:02:31.182Z,100814.17
2018-06-13T07:04:59.468Z,100820.41
2018-06-13T07:07:27.863Z,100814.72
2018-06-13T07:09:56.066Z,100819.89
2018-06-13T07:12:24.336Z,100823.39
2018-06-13T07:14:52.556Z,100822.61
2018-06-13T07:17:20.763Z,100820.14
2018-06-13T07:19:49.079Z,100819.34
2018-06-13T07:22:17.315Z,100819.05
2018-06-13T07:24:45.616Z,100817.18
2018-06-13T07:27:13.847Z,100817.70
2018-06-13T07:29:42.133Z,100816.36
2018-06-13T07:32:10.382Z,100812.56
2018-06-13T07:34:38.643Z,100811.53
2018-06-13T07:37:06.904Z,100816.38
2018-06-13T07:39:35.176Z,100810.96
2018-06-13T07:42:03.484Z,100813.94
2018-06-13T07:44:31.831Z,100813.69
2018-06-13T07:47:00.182Z,100818.59
2018-06-13T07:49:28.578Z,100806.37
2018-06-13T07:51:56.847Z,100809.10
2018-06-13T07:54:25.086Z,100811.23
2018-06-13T07:56:53.338Z,100818.30
2018-06-13T07:59:21.563Z,100815.00
2018-06-13T08:01:49.842Z,100814.50
2018-06-13T08:04:18.066Z,100821.54
2018-06-13T08:06:46.350Z,100825.33
2018-06-13T08:09:14.560Z,100819.09
2018-06-13T08:11:42.841Z,100817.73
2018-06-13T08:14:11.044Z,100823.19
2018-06-13T08:16:39.262Z,100821.27
2018-06-13T08:19:07.537Z,100819.36
2018-06-13T08:21:35.737Z,100824.75
2018-06-13T08:24:04.123Z,100821.80
2018-06-13T08:26:32.305Z,100822.64
2018-06-13T08:29:00.593Z,100819.05
2018-06-13T08:31:28.815Z,100824.18
2018-06-13T08:33:57.094Z,100821.45
2018-06-13T08:36:25.311Z,100820.94
2018-06-13T08:38:53.505Z,100824.77
2018-06-13T08:41:21.782Z,100822.88
2018-06-13T08:43:50.013Z,100823.67
2018-06-13T08:46:18.307Z,100815.53
2018-06-13T08:48:46.547Z,100824.45
2018-06-13T08:51:14.823Z,100833.95
2018-06-13T08:53:43.096Z,100823.66
2018-06-13T08:56:11.360Z,100815.47
2018-06-13T08:58:39.618Z,100820.10
2018-06-13T09:01:07.839Z,100819.81
2018-06-13T09:03:36.074Z,100820.36
2018-06-13T09:06:04.290Z,100830.91
2018-06-13T09:08:32.579Z,100829.85
2018-06-13T09:11:00.805Z,100826.28
2018-06-13T09:13:29.047Z,100829.80
2018-06-13T09:15:57.277Z,100830.34
2018-06-13T09:18:25.567Z,100829.52
2018-06-13T09:20:53.791Z,100829.23
2018-06-13T09:23:22.065Z,100829.09
2018-06-13T09:25:50.282Z,100829.21
2018-06-13T09:28:18.554Z,100820.84
2018-06-13T09:30:46.772Z,100826.48
2018-06-13T09:33:14.983Z,100834.38
2018-06-13T09:35:43.226Z,100831.64
2018-06-13T09:38:12.113Z,100837.61
2018-06-13T09:40:40.398Z,100839.47
2018-06-13T09:43:08.693Z,100824.98
2018-06-13T09:45:36.925Z,100830.64
2018-06-13T09:48:05.237Z,100831.33
2018-06-13T09:50:33.574Z,100830.39
2018-06-13T09:53:01.918Z,100827.05
2018-06-13T09:55:30.144Z,100833.64
2018-06-13T09:57:58.477Z,100830.73
2018-06-13T10:00:32.080Z,100828.23
2018-06-13T10:03:00.357Z,100833.15
2018-06-13T10:05:28.784Z,100836.76
2018-06-13T10:07:57.169Z,100833.91
2018-06-13T10:10:25.427Z,100840.34
2018-06-13T10:12:53.659Z,100834.51
2018-06-13T10:15:21.941Z,100841.94
2018-06-13T10:17:50.256Z,100839.82
2018-06-13T10:20:18.504Z,100846.61
2018-06-13T10:22:46.767Z,100843.23
2018-06-13T10:25:15.024Z,100845.73
2018-06-13T10:27:43.396Z,100852.48
2018-06-13T10:30:11.633Z,100850.22
2018-06-13T10:32:39.859Z,100857.03
2018-06-13T10:35:08.147Z,100860.19
2018-06-13T10:37:36.379Z,100859.63
2018-06-13T10:40:04.636Z,100851.70
2018-06-13T10:42:32.872Z,100855.16
2018-06-13T10:45:01.097Z,100854.34
2018-06-13T10:47:29.321Z,100850.86
2018-06-13T10:49:57.609Z,100854.90
2018-06-13T10:52:25.837Z,100855.81
2018-06-13T10:54:54.067Z,100857.15
2018-06-13T10:57:22.297Z,100848.61
2018-06-13T10:59:50.568Z,100859.18
2018-06-13T11:02:18.816Z,100858.66
2018-06-13T11:04:47.108Z,100856.00
2018-06-13T11:07:15.264Z,100860.70
2018-06-13T11:09:43.499Z,100856.73
2018-06-13T11:12:11.764Z,100857.14
2018-06-13T11:14:40.016Z,100850.13
2018-06-13T11:17:09.186Z,100853.75
2018-06-13T11:19:37.439Z,100857.31
2018-06-13T11:22:05.716Z,100856.65
2018-06-13T11:24:33.951Z,100860.59
2018-06-13T11:27:02.187Z,100865.06
2018-06-13T11:29:30.400Z,100872.89
2018-06-13T11:31:58.656Z,100860.25
2018-06-13T11:34:26.897Z,100859.65
2018-06-13T11:36:55.111Z,100861.55
2018-06-13T11:39:23.397Z,100862.91
2018-06-13T11:41:51.632Z,100875.50
2018-06-13T11:44:19.869Z,100860.86
2018-06-13T11:46:48.082Z,100865.34
2018-06-13T11:49:16.290Z,100870.03
2018-06-13T11:51:44.609Z,100877.50
2018-06-13T11:54:12.852Z,100872.41
2018-06-13T11:56:41.100Z,100868.93
2018-06-13T11:59:09.313Z,100870.19
2018-06-13T12:01:37.679Z,100880.54
2018-06-13T12:04:05.940Z,100872.88
2018-06-13T12:06:34.224Z,100870.50
2018-06-13T12:09:02.493Z,100872.49
2018-06-13T12:11:31.170Z,100870.23
2018-06-13T12:13:59.421Z,100868.84
2018-06-13T12:16:27.643Z,100871.88
2018-06-13T12:18:56.171Z,100864.38
2018-06-13T12:21:24.438Z,100868.61
2018-06-13T12:23:52.749Z,100867.13
2018-06-13T12:26:20.962Z,100866.18
2018-06-13T12:28:49.245Z,100866.33
2018-06-13T12:31:17.456Z,100868.00
2018-06-13T12:33:45.730Z,100864.43
2018-06-13T12:36:13.944Z,100863.35
2018-06-13T12:38:42.410Z,100876.86
2018-06-13T12:41:10.659Z,100871.76
2018-06-13T12:43:38.899Z,100863.98
2018-06-13T12:46:07.160Z,100865.09
2018-06-13T12:48:35.500Z,100873.16
2018-06-13T12:51:03.716Z,100876.22
2018-06-13T12:53:32.203Z,100875.41
2018-06-13T12:56:00.413Z,100871.30
2018-06-13T12:58:28.648Z,100877.92
2018-06-13T13:00:56.976Z,100875.73
2018-06-13T13:03:25.406Z,100875.47
2018-06-13T13:05:53.756Z,100876.05
2018-06-13T13:08:21.991Z,100882.67
2018-06-13T13:10:50.340Z,100886.77
2018-06-13T13:13:18.658Z,100897.26
2018-06-13T13:15:47.050Z,100900.16
2018-06-13T13:18:15.289Z,100912.97
2018-06-13T13:20:43.545Z,100903.41
2018-06-13T13:23:11.768Z,100906.22
2018-06-13T13:25:40.035Z,100910.88
2018-06-13T13:28:08.272Z,100911.52
2018-06-13T13:30:36.615Z,100919.81
2018-06-13T13:33:04.935Z,100926.50
2018-06-13T13:35:33.188Z,100918.70
2018-06-13T13:38:01.457Z,100922.45
2018-06-13T13:40:29.807Z,100921.54
2018-06-13T13:42:58.094Z,100926.88
2018-06-13T13:45:26.363Z,100927.69
2018-06-13T13:47:54.551Z,100929.50
2018-06-13T13:50:22.798Z,100928.11
2018-06-13T13:52:51.064Z,100925.02
2018-06-13T13:55:19.277Z,100925.28
2018-06-13T13:57:47.986Z,100927.67
2018-06-13T14:00:16.288Z,100918.52
2018-06-13T14:02:44.747Z,100924.59
2018-06-13T14:05:13.343Z,100923.81
2018-06-13T14:07:41.580Z,100932.73
2018-06-13T14:10:09.812Z,100928.87
2018-06-13T14:12:38.064Z,100927.83
2018-06-13T14:15:06.332Z,100927.52
2018-06-13T14:17:34.828Z,100924.91
2018-06-13T14:20:03.096Z,100934.55
2018-06-13T14:22:31.332Z,100925.41
2018-06-13T14:24:59.574Z,100917.61
2018-06-13T14:27:27.814Z,100930.05
2018-06-13T14:29:56.051Z,100925.75
2018-06-13T14:32:24.364Z,100927.66
2018-06-13T14:34:52.722Z,100929.92
2018-06-13T14:37:21.134Z,100932.62
2018-06-13T14:39:49.515Z,100931.43
2018-06-13T14:42:17.864Z,100929.80
2018-06-13T14:44:46.146Z,100926.43
2018-06-13T14:47:14.412Z,100929.31
2018-06-13T14:49:42.704Z,100925.55
2018-06-13T14:52:10.969Z,100924.70
2018-06-13T14:54:39.190Z,100919.65
2018-06-13T14:57:07.518Z,100920.47
2018-06-13T14:59:35.741Z,100923.45
2018-06-13T15:02:03.985Z,100918.78
2018-06-13T15:04:34.383Z,100919.22
2018-06-13T15:07:03.903Z,100930.20
2018-06-13T15:09:32.166Z,100926.13
2018-06-13T15:12:00.428Z,100920.83
2018-06-13T15:14:28.643Z,100921.92
2018-06-13T15:16:57.120Z,100930.78
2018-06-13T15:19:25.529Z,100924.39
2018-06-13T15:21:53.941Z,100930.89
2018-06-13T15:24:22.419Z,100933.59
2018-06-13T15:26:50.729Z,100934.52
2018-06-13T15:29:18.947Z,100934.80
2018-06-13T15:31:47.230Z,100945.27
2018-06-13T15:34:15.522Z,100940.67
2018-06-13T15:36:43.755Z,100944.89
2018-06-13T15:39:13.865Z,100951.44
2018-06-13T15:41:42.651Z,100956.01
2018-06-13T15:44:10.957Z,100943.44
2018-06-13T15:46:39.190Z,100937.83
2018-06-13T15:49:07.462Z,100937.52
2018-06-13T15:51:35.735Z,100929.03
2018-06-13T15:54:04.025Z,100921.63
2018-06-13T15:56:32.441Z,100925.17
2018-06-13T15:59:01.459Z,100925.58
2018-06-13T16:01:29.691Z,100924.55
2018-06-13T16:03:57.903Z,100926.13
2018-06-13T16:06:26.202Z,100928.48
2018-06-13T16:08:54.445Z,100933.91
2018-06-13T16:11:22.732Z,100931.67
2018-06-13T16:13:50.969Z,100932.62
2018-06-13T16:16:19.361Z,100941.06
2018-06-13T16:18:47.818Z,100957.67
2018-06-13T16:21:16.231Z,100946.20
2018-06-13T16:23:44.540Z,100942.96
2018-06-13T16:26:12.739Z,100959.85
2018-06-13T16:28:40.971Z,100957.23
2018-06-13T16:31:09.221Z,100960.06
2018-06-13T16:33:37.485Z,100970.92
2018-06-13T16:36:05.783Z,100975.16
2018-06-13T16:38:34.006Z,100980.04
2018-06-13T16:41:02.365Z,100984.58
2018-06-13T16:43:30.634Z,100986.76
2018-06-13T16:45:58.827Z,100982.25
2018-06-13T16:48:27.139Z,100980.81
2018-06-13T16:51:06.716Z,100984.48
2018-06-13T16:53:59.314Z,100985.66
2018-06-13T16:56:27.549Z,100983.83
2018-06-13T16:58:55.844Z,100984.17
2018-06-13T17:01:24.230Z,100983.27
2018-06-13T17:03:53.369Z,100992.50
2018-06-13T17:06:22.180Z,100988.84
2018-06-13T17:08:50.428Z,100994.16
2018-06-13T17:11:18.863Z,100995.52
2018-06-13T17:13:47.359Z,100997.84
2018-06-13T17:16:15.726Z,101002.02
2018-06-13T17:18:43.937Z,101000.05
2018-06-13T17:21:12.217Z,101000.44
2018-06-13T17:23:40.424Z,100999.31
2018-06-13T17:26:08.683Z,101002.81
2018-06-13T17:28:36.958Z,101008.86
2018-06-13T17:31:05.161Z,101006.09
2018-06-13T17:33:34.086Z,101010.34
2018-06-13T17:36:02.388Z,101010.28
2018-06-13T17:38:30.751Z,101021.77
2018-06-13T17:40:59.095Z,101021.70
2018-06-13T17:43:27.301Z,101025.14
2018-06-13T17:45:55.604Z,101036.14
2018-06-13T17:48:23.803Z,101035.14
2018-06-13T17:50:52.131Z,101034.09
2018-06-13T17:53:20.457Z,101034.47
2018-06-13T17:55:48.729Z,101040.97
2018-06-13T17:58:16.950Z,101045.73
2018-06-13T18:00:45.249Z,101047.34
2018-06-13T18:03:13.571Z,101047.09
2018-06-13T18:05:41.826Z,101054.34
2018-06-13T18:08:10.209Z,101042.30
2018-06-13T18:10:38.452Z,101050.43
2018-06-13T18:13:06.665Z,101054.23
2018-06-13T18:15:34.940Z,101057.23
2018-06-13T18:18:03.189Z,101061.89
2018-06-13T18:20:31.469Z,101068.63
2018-06-13T18:22:59.893Z,101071.96
2018-06-13T18:25:28.344Z,101068.97
2018-06-13T18:27:56.706Z,101065.23
2018-06-13T18:30:25.089Z,101062.23
2018-06-13T18:32:53.370Z,101067.61
2018-06-13T18:35:21.620Z,101065.75
2018-06-13T18:37:50.222Z,101067.37
2018-06-13T18:40:18.451Z,101061.94
2018-06-13T18:42:46.734Z,101061.17
2018-06-13T18:45:15.018Z,101061.48
2018-06-13T18:47:43.369Z,101064.44
2018-06-13T18:50:11.663Z,101065.77
2018-06-13T18:52:40.029Z,101066.08
2018-06-13T18:55:08.365Z,101068.53
2018-06-13T18:57:36.746Z,101069.86
2018-06-13T19:00:05.405Z,101072.26
2018-06-13T19:02:33.699Z,101074.13
2018-06-13T19:05:02.207Z,101074.19
2018-06-13T19:07:30.483Z,101075.78
2018-06-13T19:09:58.727Z,101076.03
2018-06-13T19:12:27.333Z,101078.80
2018-06-13T19:14:55.572Z,101088.30
2018-06-13T19:17:23.807Z,101079.33
2018-06-13T19:19:52.223Z,101077.42
2018-06-13T19:22:20.517Z,101082.28
2018-06-13T19:24:48.792Z,101084.24
2018-06-13T19:27:17.162Z,101085.64
2018-06-13T19:29:45.557Z,101088.64
2018-06-13T19:32:13.866Z,101095.96
2018-06-13T19:34:42.197Z,101100.27
2018-06-13T19:37:10.521Z,101101.38
2018-06-13T19:39:38.877Z,101109.28
2018-06-13T19:42:07.125Z,101116.30
2018-06-13T19:44:35.460Z,101113.86
2018-06-13T19:47:08.982Z,101116.56
2018-06-13T19:49:37.336Z,101123.09
2018-06-13T19:52:05.646Z,101115.81
2018-06-13T19:54:39.163Z,101126.13
2018-06-13T19:57:07.434Z,101129.67
2018-06-13T19:59:35.740Z,101132.39
2018-06-13T20:02:04.177Z,101138.34
2018-06-13T20:04:37.798Z,101134.55
2018-06-13T20:07:06.085Z,101147.58
2018-06-13T20:09:34.405Z,101151.92
2018-06-13T20:12:07.944Z,101150.85
2018-06-13T20:14:41.560Z,101152.19
2018-06-13T20:17:15.163Z,101158.18
2018-06-13T20:19:44.105Z,101161.16
2018-06-13T20:22:12.414Z,101157.35
2018-06-13T20:24:40.696Z,101159.80
2018-06-13T20:28:12.891Z,101170.61
2018-06-13T20:30:46.482Z,101165.72
2018-06-13T20:33:14.769Z,101164.08
2018-06-13T20:35:43.048Z,101161.64
2018-06-13T20:38:11.297Z,101161.09
2018-06-13T20:40:39.582Z,101160.83
2018-06-13T20:43:07.893Z,101159.27
2018-06-13T20:45:36.199Z,101157.34
2018-06-13T20:48:04.634Z,101158.17
2018-06-13T20:50:32.896Z,101158.39
2018-06-13T20:53:01.221Z,101161.12
2018-06-13T20:55:29.524Z,101164.62
2018-06-13T20:57:57.757Z,101166.52
2018-06-13T21:00:26.048Z,101165.49
2018-06-13T21:02:54.379Z,101164.92
2018-06-13T21:05:22.696Z,101171.70
2018-06-13T21:07:51.031Z,101173.59
2018-06-13T21:10:19.495Z,101173.91
2018-06-13T21:12:47.725Z,101176.28
2018-06-13T21:15:16.087Z,101172.76
2018-06-13T21:17:44.330Z,101167.91
2018-06-13T21:20:12.577Z,101164.97
2018-06-13T21:22:41.092Z,101169.27
2018-06-13T21:25:09.360Z,101168.77
2018-06-13T21:27:37.599Z,101163.83
2018-06-13T21:30:06.038Z,101159.75
2018-06-13T21:32:34.335Z,101165.45
2018-06-13T21:35:02.662Z,101166.05
2018-06-13T21:37:31.043Z,101165.76
2018-06-13T21:39:59.472Z,101163.00
2018-06-13T21:42:27.734Z,101155.41
2018-06-13T21:44:56.026Z,101161.90
2018-06-13T21:47:24.296Z,101167.33
2018-06-13T21:49:52.551Z,101171.69
2018-06-13T21:52:20.812Z,101171.95
2018-06-13T21:54:49.199Z,101169.48
2018-06-13T21:57:17.481Z,101161.31
2018-06-13T21:59:45.828Z,101164.00
2018-06-13T22:02:14.215Z,101160.48
2018-06-13T22:04:42.482Z,101161.25
2018-06-13T22:07:10.800Z,101156.08
2018-06-13T22:09:39.047Z,101149.07
2018-06-13T22:12:07.353Z,101153.89
2018-06-13T22:14:35.821Z,101157.41
2018-06-13T22:17:04.165Z,101150.34
2018-06-13T22:19:32.455Z,101156.28
2018-06-13T22:22:00.762Z,101159.81
2018-06-13T22:24:29.254Z,101156.23
2018-06-13T22:26:57.627Z,101166.86
2018-06-13T22:29:26.998Z,101164.88
2018-06-13T22:31:56.332Z,101165.06
2018-06-13T22:34:25.488Z,101160.20
2018-06-13T22:36:54.974Z,101159.59
2018-06-13T22:39:24.245Z,101155.90
2018-06-13T22:41:53.762Z,101157.12
2018-06-13T22:44:23.025Z,101149.66
2018-06-13T22:46:52.813Z,101148.87
2018-06-13T22:49:21.993Z,101156.30
2018-06-13T22:51:52.432Z,101156.13
2018-06-13T22:54:21.061Z,101146.13
2018-06-13T22:56:49.349Z,101148.77
2018-06-13T22:59:17.831Z,101152.34
2018-06-13T23:01:46.178Z,101153.27
2018-06-13T23:04:14.483Z,101153.27
2018-06-13T23:06:42.729Z,101156.23
2018-06-13T23:09:11.051Z,101148.52
2018-06-13T23:11:39.539Z,101148.02
2018-06-13T23:14:07.975Z,101150.19
2018-06-13T23:16:36.320Z,101156.13
2018-06-13T23:19:04.808Z,101147.33
2018-06-13T23:21:33.085Z,101146.63
2018-06-13T23:24:01.365Z,101146.33
2018-06-13T23:26:29.617Z,101144.40
2018-06-13T23:28:57.910Z,101143.11
2018-06-13T23:31:26.149Z,101134.91
2018-06-13T23:33:54.420Z,101130.48
2018-06-13T23:36:22.711Z,101134.87
2018-06-13T23:38:50.928Z,101131.11
2018-06-13T23:41:19.205Z,101129.53
2018-06-13T23:43:47.449Z,101117.44
2018-06-13T23:46:15.729Z,101124.86
2018-06-13T23:48:43.966Z,101116.66
2018-06-13T23:51:12.240Z,101120.78
2018-06-13T23:53:40.527Z,101119.94
2018-06-13T23:56:08.857Z,101123.30
2018-06-13T23:58:37.217Z,101122.53
